Kimble County Airport
KJCT : now visible

Airfield :











YOU CAN JOIN US ON...

 
LOGIN :

Register | Disclaimer

   EN    FR    IT 

 









Legend :    VFR   Marginal VFR   IFR   Intensive IFR   Very Intensive IFR
Visi :
Ceiling :
>= 8 km
>= 3000ft
5 to 8 km
1000 to 3000 ft
1500m to 5 km
500 to 1000 ft
800 to 1500m
200 to 500 ft
< 800m
< 200 ft
Symbols :   Thunderstorms  Fog  Heavy snow  Heavy precipitations  Wind > 20 kt






- Airport Elevation : 1749 ft


KJCT - Kimble County

CURRENT METAR :
  • 240651Z AUTO 07005KT 10SM OVC014 21/17 A3004 RMK AO2 SLP138 T02060172

EXPIRED METARs :
  • 240633Z AUTO 05006KT 10SM BKN014 21/17 A3005 RMK AO2 T02060172
  • 240620Z AUTO 10004KT 10SM BKN016 BKN025 20/17 A3004 RMK AO2 T02000172
  • 240551Z AUTO 08005KT 10SM SCT016 BKN025 20/17 A3005 RMK AO2 SLP141 T02000172 10272 20194 402940139 53009
  • 240451Z AUTO 22004KT 10SM CLR 21/17 A3003 RMK AO2 SLP135 T02060167
  • 240351Z AUTO 12003KT 10SM CLR 21/16 A3003 RMK AO2 SLP138 T02110161
  • 240251Z AUTO 18003KT 10SM CLR 22/16 A3002 RMK AO2 SLP134 T02220161 53018
  • 240151Z AUTO 17008KT 10SM CLR 23/17 A2998 RMK AO2 SLP119 T02330167

TAF KJCT
Valid from the 24 at 06:00 until the 25 at 06:00 UTC


240538Z 2406/2506 18005KT P6SM BKN025
FM240700 19009KT P6SM BKN013
FM241400 18007KT P6SM BKN009
FM241500 18007KT P6SM BKN011
FM241700 17009KT P6SM BKN013
FM241900 16012G20KT P6SM BKN035
FM250400 15010KT P6SM BKN022
KZHU FIR / North America



MET'MAP, your aeronautical weather chart ! - Copyright ORBIFLY December 2007 - Disclaimer

ORBIFLY MET'MAP TEAM :

Programming & Development : Alexandra Zaïnal
Original concept : Baudouin d'Aumeries
Technical & hardware support : Manuel Goepfert
Assistance : Marc-Olivier Méhu




SOURCES & CREDITS :

   NOAA       Earth
Advisory